createdAt,value
2016-10-04T00:00:34.587Z,1014.75
2016-10-04T00:01:34.603Z,1014.76
2016-10-04T00:02:34.628Z,1014.75
2016-10-04T00:03:34.646Z,1014.76
2016-10-04T00:04:34.663Z,1014.77
2016-10-04T00:05:34.685Z,1014.79
2016-10-04T00:06:34.701Z,1014.78
2016-10-04T00:07:34.726Z,1014.76
2016-10-04T00:08:34.741Z,1014.74
2016-10-04T00:09:34.762Z,1014.77
2016-10-04T00:10:34.784Z,1014.71
2016-10-04T00:11:34.799Z,1014.76
2016-10-04T00:12:34.819Z,1014.75
2016-10-04T00:13:34.839Z,1014.74
2016-10-04T00:14:34.865Z,1014.74
2016-10-04T00:15:34.881Z,1014.72
2016-10-04T00:16:34.900Z,1014.74
2016-10-04T00:17:34.919Z,1014.76
2016-10-04T00:18:34.936Z,1014.81
2016-10-04T00:19:34.958Z,1014.77
2016-10-04T00:20:34.975Z,1014.79
2016-10-04T00:21:34.996Z,1014.78
2016-10-04T00:22:35.017Z,1014.8
2016-10-04T00:23:35.034Z,1014.77
2016-10-04T00:24:35.052Z,1014.79
2016-10-04T00:25:35.072Z,1014.85
2016-10-04T00:26:35.093Z,1014.82
2016-10-04T00:27:35.111Z,1014.83
2016-10-04T00:28:35.130Z,1014.84
2016-10-04T00:29:35.152Z,1014.83
2016-10-04T00:30:35.171Z,1014.86
2016-10-04T00:31:35.188Z,1014.86
2016-10-04T00:32:35.208Z,1014.83
2016-10-04T00:33:35.228Z,1014.85
2016-10-04T00:34:35.248Z,1014.85
2016-10-04T00:35:35.267Z,1014.88
2016-10-04T00:36:35.287Z,1014.82
2016-10-04T00:37:35.309Z,1014.86
2016-10-04T00:38:35.324Z,1014.83
2016-10-04T00:39:35.344Z,1014.84
2016-10-04T00:40:35.364Z,1014.86
2016-10-04T00:41:35.390Z,1014.85
2016-10-04T00:42:35.406Z,1014.8
2016-10-04T00:43:35.423Z,1014.83
2016-10-04T00:44:35.442Z,1014.85
2016-10-04T00:45:35.462Z,1014.87
2016-10-04T00:46:35.482Z,1014.85
2016-10-04T00:47:35.502Z,1014.86
2016-10-04T00:48:35.522Z,1014.91
2016-10-04T00:49:35.539Z,1014.86
2016-10-04T00:50:35.560Z,1014.82
2016-10-04T00:51:35.578Z,1014.86
2016-10-04T00:52:35.600Z,1014.84
2016-10-04T00:53:35.616Z,1014.85
2016-10-04T00:54:35.637Z,1014.87
2016-10-04T00:55:35.657Z,1014.83
2016-10-04T00:56:35.675Z,1014.86
2016-10-04T00:57:35.697Z,1014.81
2016-10-04T00:58:35.715Z,1014.83
2016-10-04T00:59:35.734Z,1014.85
2016-10-04T01:00:35.757Z,1014.88
2016-10-04T01:01:35.773Z,1014.88
2016-10-04T01:02:35.794Z,1014.89
2016-10-04T01:03:35.814Z,1014.89
2016-10-04T01:04:35.833Z,1014.89
2016-10-04T01:05:35.851Z,1014.87
2016-10-04T01:06:35.871Z,1014.92
2016-10-04T01:07:35.893Z,1014.9
2016-10-04T01:08:35.908Z,1014.88
2016-10-04T01:09:35.928Z,1014.89
2016-10-04T01:10:35.948Z,1014.88
2016-10-04T01:11:35.967Z,1014.89
2016-10-04T01:12:35.988Z,1014.9
2016-10-04T01:13:36.009Z,1014.89
2016-10-04T01:14:36.028Z,1014.92
2016-10-04T01:15:36.047Z,1014.92
2016-10-04T01:16:36.065Z,1014.91
2016-10-04T01:17:36.085Z,1014.89
2016-10-04T01:18:36.104Z,1014.89
2016-10-04T01:19:36.124Z,1014.89
2016-10-04T01:20:36.144Z,1014.9
2016-10-04T01:21:36.164Z,1014.96
2016-10-04T01:22:36.181Z,1014.95
2016-10-04T01:23:36.204Z,1014.93
2016-10-04T01:24:36.223Z,1014.99
2016-10-04T01:25:36.240Z,1014.94
2016-10-04T01:26:36.265Z,1014.95
2016-10-04T01:27:36.281Z,1014.97
2016-10-04T01:28:36.299Z,1014.95
2016-10-04T01:29:36.318Z,1014.92
2016-10-04T01:30:36.337Z,1014.96
2016-10-04T01:31:36.359Z,1014.91
2016-10-04T01:32:36.377Z,1014.92
2016-10-04T01:33:36.395Z,1014.93
2016-10-04T01:34:36.415Z,1014.97
2016-10-04T01:35:36.434Z,1014.98
2016-10-04T01:36:36.453Z,1014.93
2016-10-04T01:37:36.477Z,1014.92
2016-10-04T01:38:36.496Z,1014.93
2016-10-04T01:39:36.513Z,1014.99
2016-10-04T01:40:36.536Z,1014.99
2016-10-04T01:41:36.554Z,1014.99
2016-10-04T01:42:36.572Z,1015.01
2016-10-04T01:43:36.591Z,1015
2016-10-04T01:44:36.610Z,1015.01
2016-10-04T01:45:36.629Z,1015
2016-10-04T01:46:36.649Z,1014.98
2016-10-04T01:47:36.668Z,1014.99
2016-10-04T01:48:36.688Z,1014.98
2016-10-04T01:49:36.707Z,1014.98
2016-10-04T01:50:36.727Z,1014.99
2016-10-04T01:51:36.745Z,1014.99
2016-10-04T01:52:36.765Z,1015.01
2016-10-04T01:53:36.787Z,1015
2016-10-04T01:54:36.812Z,1015
2016-10-04T01:55:36.822Z,1015.04
2016-10-04T01:56:36.850Z,1015.05
2016-10-04T01:57:36.862Z,1015.02
2016-10-04T01:58:36.881Z,1015.01
2016-10-04T01:59:36.902Z,1015.02
2016-10-04T02:00:36.920Z,1015.04
2016-10-04T02:01:36.939Z,1015.07
2016-10-04T02:02:36.958Z,1015.03
2016-10-04T02:03:36.978Z,1015.02
2016-10-04T02:04:36.997Z,1015.02
2016-10-04T02:05:37.017Z,1015.03
2016-10-04T02:06:37.036Z,1015
2016-10-04T02:07:37.056Z,1015.03
2016-10-04T02:08:37.077Z,1015.02
2016-10-04T02:09:37.093Z,1015.02
2016-10-04T02:10:37.113Z,1014.97
2016-10-04T02:11:37.134Z,1015.02
2016-10-04T02:12:37.152Z,1014.98
2016-10-04T02:13:37.170Z,1015.01
2016-10-04T02:14:37.190Z,1014.99
2016-10-04T02:15:37.211Z,1014.99
2016-10-04T02:16:37.230Z,1014.98
2016-10-04T02:17:37.249Z,1014.97
2016-10-04T02:18:37.269Z,1014.97
2016-10-04T02:19:37.291Z,1014.97
2016-10-04T02:20:37.306Z,1014.98
2016-10-04T02:21:37.331Z,1014.94
2016-10-04T02:22:37.346Z,1014.97
2016-10-04T02:23:37.364Z,1014.98
2016-10-04T02:24:37.387Z,1014.99
2016-10-04T02:25:37.408Z,1014.97
2016-10-04T02:26:37.423Z,1014.99
2016-10-04T02:27:37.444Z,1015.01
2016-10-04T02:28:37.461Z,1014.98
2016-10-04T02:29:37.480Z,1015
2016-10-04T02:30:37.501Z,1015.02
2016-10-04T02:31:37.522Z,1015.02
2016-10-04T02:32:37.538Z,1015.03
2016-10-04T02:33:37.558Z,1015.01
2016-10-04T02:34:37.577Z,1015.03
2016-10-04T02:35:37.598Z,1015
2016-10-04T02:36:37.619Z,1015
2016-10-04T02:37:37.636Z,1015.05
2016-10-04T02:38:37.655Z,1015.08
2016-10-04T02:39:37.675Z,1015.07
2016-10-04T02:40:37.693Z,1015.1
2016-10-04T02:41:37.713Z,1015.08
2016-10-04T02:42:37.733Z,1015.14
2016-10-04T02:43:37.752Z,1015.09
2016-10-04T02:44:37.771Z,1015.15
2016-10-04T02:45:37.789Z,1015.13
2016-10-04T02:46:37.811Z,1015.15
2016-10-04T02:47:37.828Z,1015.11
2016-10-04T02:48:37.849Z,1015.13
2016-10-04T02:49:37.867Z,1015.1
2016-10-04T02:50:37.885Z,1015.12
2016-10-04T02:51:37.905Z,1015.13
2016-10-04T02:52:37.924Z,1015.14
2016-10-04T02:53:37.943Z,1015.17
2016-10-04T02:54:37.963Z,1015.16
2016-10-04T02:55:37.982Z,1015.14
2016-10-04T02:56:38.002Z,1015.17
2016-10-04T02:57:38.022Z,1015.15
2016-10-04T02:58:38.041Z,1015.17
2016-10-04T02:59:38.062Z,1015.13
2016-10-04T03:00:38.080Z,1015.18
2016-10-04T03:01:38.104Z,1015.17
2016-10-04T03:02:38.119Z,1015.2
2016-10-04T03:03:38.137Z,1015.23
2016-10-04T03:04:38.155Z,1015.21
2016-10-04T03:05:38.175Z,1015.2
2016-10-04T03:06:38.195Z,1015.19
2016-10-04T03:07:38.214Z,1015.22
2016-10-04T03:08:38.234Z,1015.19
2016-10-04T03:09:38.253Z,1015.23
2016-10-04T03:10:38.273Z,1015.23
2016-10-04T03:11:38.292Z,1015.24
2016-10-04T03:12:38.312Z,1015.22
2016-10-04T03:13:38.330Z,1015.26
2016-10-04T03:14:38.349Z,1015.21
2016-10-04T03:15:38.377Z,1015.27
2016-10-04T03:16:38.390Z,1015.28
2016-10-04T03:17:38.409Z,1015.3
2016-10-04T03:18:38.429Z,1015.28
2016-10-04T03:19:38.461Z,1015.3
2016-10-04T03:20:38.475Z,1015.33
2016-10-04T03:21:38.487Z,1015.3
2016-10-04T03:22:38.504Z,1015.28
2016-10-04T03:23:38.524Z,1015.29
2016-10-04T03:24:38.544Z,1015.28
2016-10-04T03:25:38.564Z,1015.31
2016-10-04T03:26:38.582Z,1015.31
2016-10-04T03:27:38.604Z,1015.36
2016-10-04T03:28:38.622Z,1015.34
2016-10-04T03:29:38.642Z,1015.31
2016-10-04T03:30:38.660Z,1015.34
2016-10-04T03:31:38.679Z,1015.37
2016-10-04T03:32:38.700Z,1015.34
2016-10-04T03:33:38.720Z,1015.36
2016-10-04T03:34:38.740Z,1015.37
2016-10-04T03:35:38.757Z,1015.42
2016-10-04T03:36:38.778Z,1015.44
2016-10-04T03:37:38.796Z,1015.41
2016-10-04T03:38:38.815Z,1015.43
2016-10-04T03:39:38.835Z,1015.48
2016-10-04T03:40:38.855Z,1015.45
2016-10-04T03:41:38.876Z,1015.47
2016-10-04T03:42:38.894Z,1015.49
2016-10-04T03:43:38.914Z,1015.48
2016-10-04T03:44:39.030Z,1015.49
2016-10-04T03:45:39.064Z,1015.44
2016-10-04T03:46:39.072Z,1015.51
2016-10-04T03:47:39.082Z,1015.53
2016-10-04T03:48:39.092Z,1015.55
2016-10-04T03:49:39.225Z,1015.57
2016-10-04T03:50:39.097Z,1015.59
2016-10-04T03:51:39.108Z,1015.61
2016-10-04T03:52:39.115Z,1015.59
2016-10-04T03:53:39.124Z,1015.6
2016-10-04T03:54:39.287Z,1015.66
2016-10-04T03:55:39.269Z,1015.65
2016-10-04T03:56:39.201Z,1015.61
2016-10-04T03:57:39.209Z,1015.63
2016-10-04T03:58:39.210Z,1015.67
2016-10-04T03:59:39.376Z,1015.68
2016-10-04T04:00:39.345Z,1015.68
2016-10-04T04:01:39.356Z,1015.7
2016-10-04T04:02:39.360Z,1015.69
2016-10-04T04:03:39.306Z,1015.69
2016-10-04T04:04:39.324Z,1015.73
2016-10-04T04:05:39.343Z,1015.74
2016-10-04T04:06:39.362Z,1015.73
2016-10-04T04:07:39.383Z,1015.74
2016-10-04T04:08:39.402Z,1015.76
2016-10-04T04:09:39.422Z,1015.74
2016-10-04T04:11:39.460Z,1015.81
2016-10-04T04:12:39.480Z,1015.79
2016-10-04T04:13:39.499Z,1015.78
2016-10-04T04:14:39.521Z,1015.76
2016-10-04T04:15:39.542Z,1015.77
2016-10-04T04:16:39.560Z,1015.77
2016-10-04T04:17:39.577Z,1015.82
2016-10-04T04:18:39.596Z,1015.79
2016-10-04T04:19:39.616Z,1015.82
2016-10-04T04:20:39.636Z,1015.79
2016-10-04T04:21:39.655Z,1015.83
2016-10-04T04:22:39.675Z,1015.83
2016-10-04T04:23:39.694Z,1015.82
2016-10-04T04:24:39.715Z,1015.81
2016-10-04T04:25:39.739Z,1015.88
2016-10-04T04:26:39.755Z,1015.85
2016-10-04T04:27:39.773Z,1015.84
2016-10-04T04:28:39.795Z,1015.9
2016-10-04T04:29:39.811Z,1015.88
2016-10-04T04:30:39.833Z,1015.88
2016-10-04T04:31:39.851Z,1015.9
2016-10-04T04:32:39.870Z,1015.9
2016-10-04T04:33:39.891Z,1015.96
2016-10-04T04:34:39.912Z,1015.92
2016-10-04T04:35:39.931Z,1015.94
2016-10-04T04:36:39.948Z,1015.94
2016-10-04T04:37:39.968Z,1016
2016-10-04T04:38:39.988Z,1016.01
2016-10-04T04:39:40.006Z,1015.98
2016-10-04T04:40:40.029Z,1016
2016-10-04T04:41:40.046Z,1016.02
2016-10-04T04:42:40.065Z,1016.03
2016-10-04T04:43:40.084Z,1016.05
2016-10-04T04:44:40.108Z,1016.07
2016-10-04T04:45:40.194Z,1016.11
2016-10-04T04:46:40.147Z,1016.06
2016-10-04T04:47:40.171Z,1016.11
2016-10-04T04:48:40.188Z,1016.14
2016-10-04T04:49:40.206Z,1016.15
2016-10-04T04:50:40.228Z,1016.16
2016-10-04T04:51:40.246Z,1016.15
2016-10-04T04:52:40.266Z,1016.18
2016-10-04T04:53:40.284Z,1016.18
2016-10-04T04:54:40.302Z,1016.17
2016-10-04T04:55:40.322Z,1016.15
2016-10-04T04:56:40.340Z,1016.15
2016-10-04T04:57:40.359Z,1016.18
2016-10-04T04:58:40.382Z,1016.25
2016-10-04T04:59:40.398Z,1016.19
2016-10-04T05:00:40.418Z,1016.26
2016-10-04T05:01:40.441Z,1016.31
2016-10-04T05:02:40.457Z,1016.29
2016-10-04T05:03:40.479Z,1016.36
2016-10-04T05:04:40.497Z,1016.34
2016-10-04T05:05:40.515Z,1016.33
2016-10-04T05:06:40.534Z,1016.38
2016-10-04T05:07:40.558Z,1016.36
2016-10-04T05:08:40.578Z,1016.37
2016-10-04T05:09:40.594Z,1016.38
2016-10-04T05:10:40.613Z,1016.42
2016-10-04T05:11:40.633Z,1016.45
2016-10-04T05:12:40.651Z,1016.45
2016-10-04T05:13:40.671Z,1016.47
2016-10-04T05:14:40.690Z,1016.49
2016-10-04T05:15:40.712Z,1016.51
2016-10-04T05:16:40.731Z,1016.56
2016-10-04T05:17:40.748Z,1016.55
2016-10-04T05:18:40.770Z,1016.59
2016-10-04T05:19:40.787Z,1016.6
2016-10-04T05:20:40.808Z,1016.58
2016-10-04T05:21:40.828Z,1016.61
2016-10-04T05:22:40.849Z,1016.61
2016-10-04T05:23:40.965Z,1016.7
2016-10-04T05:24:40.886Z,1016.65
2016-10-04T05:25:40.907Z,1016.7
2016-10-04T05:26:40.924Z,1016.69
2016-10-04T05:27:40.943Z,1016.75
2016-10-04T05:28:40.963Z,1016.79
2016-10-04T05:29:40.985Z,1016.79
2016-10-04T05:30:41.004Z,1016.78
2016-10-04T05:31:41.023Z,1016.76
2016-10-04T05:32:41.041Z,1016.85
2016-10-04T05:33:41.061Z,1016.77
2016-10-04T05:34:41.080Z,1016.83
2016-10-04T05:35:41.103Z,1016.83
2016-10-04T05:36:41.119Z,1016.82
2016-10-04T05:37:41.139Z,1016.86
2016-10-04T05:38:41.156Z,1016.86
2016-10-04T05:39:41.177Z,1016.83
2016-10-04T05:40:41.196Z,1016.85
2016-10-04T05:41:41.216Z,1016.86
2016-10-04T05:42:41.236Z,1016.94
2016-10-04T05:43:41.255Z,1016.89
2016-10-04T05:44:41.277Z,1016.93
2016-10-04T05:45:41.293Z,1016.93
2016-10-04T05:46:41.316Z,1016.94
2016-10-04T05:47:41.335Z,1016.92
2016-10-04T05:48:41.353Z,1016.97
2016-10-04T05:49:41.373Z,1016.95
2016-10-04T05:50:41.392Z,1017.02
2016-10-04T05:51:41.413Z,1017.02
2016-10-04T05:52:41.431Z,1017.04
2016-10-04T05:53:41.463Z,1017.08
2016-10-04T05:54:41.470Z,1017.1
2016-10-04T05:55:41.489Z,1017.12
2016-10-04T05:56:41.508Z,1017.14
2016-10-04T05:57:41.527Z,1017.13
2016-10-04T05:58:41.547Z,1017.19
2016-10-04T05:59:41.568Z,1017.16
2016-10-04T06:00:41.587Z,1017.15
2016-10-04T06:01:41.607Z,1017.21
2016-10-04T06:02:41.625Z,1017.23
2016-10-04T06:03:41.648Z,1017.2
2016-10-04T06:04:41.665Z,1017.22
2016-10-04T06:05:41.685Z,1017.31
2016-10-04T06:06:41.703Z,1017.26
2016-10-04T06:07:41.723Z,1017.28
2016-10-04T06:08:41.743Z,1017.3
2016-10-04T06:09:41.761Z,1017.34
2016-10-04T06:10:41.783Z,1017.31
2016-10-04T06:11:41.805Z,1017.39
2016-10-04T06:12:41.819Z,1017.36
2016-10-04T06:13:41.839Z,1017.36
2016-10-04T06:14:41.860Z,1017.41
2016-10-04T06:15:41.878Z,1017.41
2016-10-04T06:16:41.950Z,1017.42
2016-10-04T06:17:41.948Z,1017.4
2016-10-04T06:18:41.959Z,1017.44
2016-10-04T06:19:42.144Z,1017.44
2016-10-04T06:20:42.035Z,1017.47
2016-10-04T06:21:42.036Z,1017.49
2016-10-04T06:22:42.044Z,1017.53
2016-10-04T06:23:42.052Z,1017.54
2016-10-04T06:24:42.179Z,1017.54
2016-10-04T06:25:42.074Z,1017.55
2016-10-04T06:26:42.186Z,1017.58
2016-10-04T06:27:42.196Z,1017.61
2016-10-04T06:28:42.203Z,1017.68
2016-10-04T06:29:42.235Z,1017.63
2016-10-04T06:30:42.246Z,1017.67
2016-10-04T06:31:42.244Z,1017.64
2016-10-04T06:32:42.212Z,1017.7
2016-10-04T06:33:42.232Z,1017.71
2016-10-04T06:34:42.251Z,1017.7
2016-10-04T06:35:42.270Z,1017.7
2016-10-04T06:36:42.295Z,1017.74
2016-10-04T06:37:42.309Z,1017.73
2016-10-04T06:38:42.329Z,1017.76
2016-10-04T06:39:42.348Z,1017.76
2016-10-04T06:40:42.368Z,1017.76
2016-10-04T06:41:42.388Z,1017.71
2016-10-04T06:42:42.414Z,1017.76
2016-10-04T06:43:42.428Z,1017.79
2016-10-04T06:44:42.448Z,1017.74
2016-10-04T06:45:42.465Z,1017.81
2016-10-04T06:46:42.485Z,1017.79
2016-10-04T06:47:42.504Z,1017.81
2016-10-04T06:48:42.524Z,1017.84
2016-10-04T06:49:42.544Z,1017.84
2016-10-04T06:50:42.564Z,1017.89
2016-10-04T06:51:42.586Z,1017.84
2016-10-04T06:52:42.603Z,1017.9
2016-10-04T06:53:42.622Z,1017.85
2016-10-04T06:54:42.641Z,1017.89
2016-10-04T06:55:42.661Z,1017.93
2016-10-04T06:56:42.682Z,1017.88
2016-10-04T06:57:42.702Z,1017.88
2016-10-04T06:58:42.720Z,1017.95
2016-10-04T06:59:42.739Z,1017.93
2016-10-04T07:00:42.759Z,1017.98
2016-10-04T07:01:42.779Z,1017.99
2016-10-04T07:02:42.799Z,1017.99
2016-10-04T07:03:42.819Z,1018.04
2016-10-04T07:04:42.840Z,1018
2016-10-04T07:05:42.857Z,1018.05
2016-10-04T07:06:42.877Z,1018.03
2016-10-04T07:07:42.897Z,1018.09
2016-10-04T07:08:42.919Z,1018.16
2016-10-04T07:09:42.939Z,1018.14
2016-10-04T07:10:42.959Z,1018.15
2016-10-04T07:11:42.978Z,1018.15
2016-10-04T07:12:42.999Z,1018.16
2016-10-04T07:13:43.015Z,1018.14
2016-10-04T07:14:43.037Z,1018.19
2016-10-04T07:15:43.053Z,1018.22
2016-10-04T07:16:43.073Z,1018.19
2016-10-04T07:17:43.094Z,1018.21
2016-10-04T07:18:43.112Z,1018.25
2016-10-04T07:19:43.136Z,1018.21
2016-10-04T07:20:43.152Z,1018.26
2016-10-04T07:21:43.172Z,1018.25
2016-10-04T07:22:43.192Z,1018.3
2016-10-04T07:23:43.211Z,1018.28
2016-10-04T07:24:43.231Z,1018.3
2016-10-04T07:25:43.254Z,1018.35
2016-10-04T07:26:43.271Z,1018.39
2016-10-04T07:27:43.292Z,1018.33
2016-10-04T07:28:43.309Z,1018.36
2016-10-04T07:29:43.329Z,1018.31
2016-10-04T07:30:43.349Z,1018.4
2016-10-04T07:31:43.367Z,1018.47
2016-10-04T07:32:43.387Z,1018.51
2016-10-04T07:33:43.406Z,1018.48
2016-10-04T07:34:43.427Z,1018.48
2016-10-04T07:35:43.448Z,1018.54
2016-10-04T07:36:43.465Z,1018.56
2016-10-04T07:37:43.491Z,1018.59
2016-10-04T07:38:43.505Z,1018.57
2016-10-04T07:39:43.527Z,1018.6
2016-10-04T07:40:43.545Z,1018.62
2016-10-04T07:41:43.565Z,1018.57
2016-10-04T07:42:43.584Z,1018.63
2016-10-04T07:43:43.603Z,1018.64
2016-10-04T07:44:43.624Z,1018.67
2016-10-04T07:45:43.643Z,1018.62
2016-10-04T07:46:43.660Z,1018.66
2016-10-04T07:47:43.682Z,1018.65
2016-10-04T07:48:43.702Z,1018.69
2016-10-04T07:49:43.719Z,1018.72
2016-10-04T07:50:43.755Z,1018.75
2016-10-04T07:51:43.765Z,1018.69
2016-10-04T07:52:43.785Z,1018.77
2016-10-04T07:53:43.801Z,1018.71
2016-10-04T07:54:43.818Z,1018.71
2016-10-04T07:55:43.840Z,1018.72
2016-10-04T07:56:43.858Z,1018.74
2016-10-04T07:57:43.879Z,1018.75
2016-10-04T07:58:43.898Z,1018.74
2016-10-04T07:59:43.917Z,1018.77
2016-10-04T08:00:43.939Z,1018.76
2016-10-04T08:01:43.958Z,1018.8
2016-10-04T08:02:43.977Z,1018.79
2016-10-04T08:03:43.998Z,1018.78
2016-10-04T08:04:44.027Z,1018.74
2016-10-04T08:05:44.040Z,1018.77
2016-10-04T08:06:44.057Z,1018.8
2016-10-04T08:07:44.074Z,1018.77
2016-10-04T08:08:44.095Z,1018.78
2016-10-04T08:09:44.115Z,1018.78
2016-10-04T08:10:44.133Z,1018.82
2016-10-04T08:11:44.153Z,1018.81
2016-10-04T08:12:44.175Z,1018.8
2016-10-04T08:13:44.193Z,1018.78
2016-10-04T08:14:44.212Z,1018.82
2016-10-04T08:15:44.233Z,1018.87
2016-10-04T08:16:44.252Z,1018.86
2016-10-04T08:17:44.273Z,1018.8
2016-10-04T08:18:44.291Z,1018.89
2016-10-04T08:19:44.311Z,1018.83
2016-10-04T08:20:44.332Z,1018.8
2016-10-04T08:21:44.352Z,1018.84
2016-10-04T08:22:44.368Z,1018.82
2016-10-04T08:23:44.390Z,1018.82
2016-10-04T08:24:44.409Z,1018.9
2016-10-04T08:25:44.432Z,1018.91
2016-10-04T08:26:44.448Z,1018.86
2016-10-04T08:27:44.470Z,1018.87
2016-10-04T08:28:44.488Z,1018.89
2016-10-04T08:29:44.506Z,1018.9
2016-10-04T08:30:44.527Z,1018.9
2016-10-04T08:31:44.550Z,1018.94
2016-10-04T08:32:44.572Z,1018.9
2016-10-04T08:33:44.586Z,1018.85
2016-10-04T08:34:44.607Z,1018.9
2016-10-04T08:35:44.624Z,1018.85
2016-10-04T08:36:44.647Z,1018.94
2016-10-04T08:37:44.662Z,1018.87
2016-10-04T08:38:44.685Z,1018.85
2016-10-04T08:39:44.753Z,1018.87
2016-10-04T08:40:44.722Z,1018.89
2016-10-04T08:41:44.745Z,1018.93
2016-10-04T08:42:44.761Z,1018.92
2016-10-04T08:43:44.781Z,1018.92
2016-10-04T08:44:44.801Z,1018.95
2016-10-04T08:45:44.820Z,1019.01
2016-10-04T08:46:44.843Z,1018.99
2016-10-04T08:47:44.860Z,1019.04
2016-10-04T08:48:44.878Z,1018.95
2016-10-04T08:49:44.900Z,1019.04
2016-10-04T08:50:44.922Z,1019.02
2016-10-04T08:51:44.938Z,1019
2016-10-04T08:52:44.958Z,1018.89
2016-10-04T08:53:44.977Z,1018.97
2016-10-04T08:54:45.001Z,1018.97
2016-10-04T08:55:45.017Z,1018.96
2016-10-04T08:56:45.036Z,1019.04
2016-10-04T08:57:45.055Z,1018.99
2016-10-04T08:58:45.074Z,1019
2016-10-04T08:59:45.097Z,1019.03
2016-10-04T09:00:45.117Z,1019.04
2016-10-04T09:01:45.133Z,1019.06
2016-10-04T09:02:45.153Z,1018.94
2016-10-04T09:03:45.174Z,1019
2016-10-04T09:04:45.192Z,1019.07
2016-10-04T09:05:45.212Z,1019.01
2016-10-04T09:06:45.233Z,1019.06
2016-10-04T09:07:45.252Z,1019.06
2016-10-04T09:08:45.274Z,1019.07
2016-10-04T09:09:45.310Z,1019.03
2016-10-04T09:10:45.315Z,1019.04
2016-10-04T09:11:45.330Z,1019.04
2016-10-04T09:12:45.350Z,1019.09
2016-10-04T09:13:45.369Z,1019.07
2016-10-04T09:14:45.390Z,1019.06
2016-10-04T09:15:45.410Z,1019.05
2016-10-04T09:16:45.429Z,1019.06
2016-10-04T09:17:45.449Z,1019.05
2016-10-04T09:18:45.469Z,1019.05
2016-10-04T09:19:45.489Z,1019.08
2016-10-04T09:20:45.508Z,1019.02
2016-10-04T09:21:45.527Z,1019.05
2016-10-04T09:22:45.547Z,1019.07
2016-10-04T09:23:45.568Z,1019.12
2016-10-04T09:24:45.587Z,1019.1
2016-10-04T09:25:45.608Z,1019.11
2016-10-04T09:26:45.629Z,1019.11
2016-10-04T09:27:45.649Z,1019.05
2016-10-04T09:28:45.667Z,1019.14
2016-10-04T09:29:45.688Z,1019.04
2016-10-04T09:30:45.708Z,1019.11
2016-10-04T09:31:45.732Z,1019.05
2016-10-04T09:32:45.750Z,1019.07
2016-10-04T09:33:45.770Z,1019.11
2016-10-04T09:34:45.790Z,1019.1
2016-10-04T09:35:45.809Z,1019.12
2016-10-04T09:36:45.829Z,1019.12
2016-10-04T09:37:45.850Z,1019.13
2016-10-04T09:38:45.869Z,1019.11
2016-10-04T09:39:45.889Z,1019.09
2016-10-04T09:40:45.908Z,1019.13
2016-10-04T09:41:45.930Z,1019.14
2016-10-04T09:42:45.949Z,1019.17
2016-10-04T09:43:45.969Z,1019.13
2016-10-04T09:44:45.990Z,1019.21
2016-10-04T09:45:46.009Z,1019.11
2016-10-04T09:46:46.029Z,1019.15
2016-10-04T09:47:46.051Z,1019.18
2016-10-04T09:48:46.071Z,1019.2
2016-10-04T09:49:46.094Z,1019.24
2016-10-04T09:50:46.110Z,1019.19
2016-10-04T09:51:46.132Z,1019.17
2016-10-04T09:52:46.159Z,1019.18
2016-10-04T09:53:46.170Z,1019.21
2016-10-04T09:54:46.196Z,1019.22
2016-10-04T09:55:46.214Z,1019.21
2016-10-04T09:56:46.235Z,1019.25
2016-10-04T09:57:46.254Z,1019.3
2016-10-04T09:58:46.276Z,1019.25
2016-10-04T09:59:46.295Z,1019.25
2016-10-04T10:00:46.313Z,1019.26
2016-10-04T10:01:46.336Z,1019.28
2016-10-04T10:02:46.356Z,1019.31
2016-10-04T10:03:46.374Z,1019.31
2016-10-04T10:04:46.395Z,1019.38
2016-10-04T10:05:46.415Z,1019.41
2016-10-04T10:06:46.435Z,1019.39
2016-10-04T10:07:46.459Z,1019.37
2016-10-04T10:08:46.481Z,1019.38
2016-10-04T10:09:46.499Z,1019.37
2016-10-04T10:10:46.520Z,1019.41
2016-10-04T10:11:46.537Z,1019.41
2016-10-04T10:12:46.560Z,1019.42
2016-10-04T10:13:46.578Z,1019.42
2016-10-04T10:14:46.603Z,1019.39
2016-10-04T10:15:46.620Z,1019.37
2016-10-04T10:16:46.642Z,1019.35
2016-10-04T10:17:46.662Z,1019.34
2016-10-04T10:18:46.684Z,1019.35
2016-10-04T10:19:46.701Z,1019.35
2016-10-04T10:20:46.726Z,1019.37
2016-10-04T10:21:46.745Z,1019.32
2016-10-04T10:22:46.767Z,1019.33
2016-10-04T10:23:46.785Z,1019.41
2016-10-04T10:24:46.803Z,1019.38
2016-10-04T10:25:46.824Z,1019.3
2016-10-04T10:26:46.849Z,1019.3
2016-10-04T10:27:46.866Z,1019.34
2016-10-04T10:28:46.886Z,1019.42
2016-10-04T10:29:46.910Z,1019.44
2016-10-04T10:30:46.925Z,1019.35
2016-10-04T10:31:46.949Z,1019.4
2016-10-04T10:32:46.971Z,1019.48
2016-10-04T10:33:46.992Z,1019.39
2016-10-04T10:34:47.014Z,1019.51
2016-10-04T10:35:47.034Z,1019.51
2016-10-04T10:36:47.059Z,1019.46
2016-10-04T10:37:47.074Z,1019.45
2016-10-04T10:38:47.093Z,1019.49
2016-10-04T10:39:47.113Z,1019.46
2016-10-04T10:40:47.136Z,1019.44
2016-10-04T10:41:47.156Z,1019.52
2016-10-04T10:42:47.176Z,1019.59
2016-10-04T10:43:47.199Z,1019.51
2016-10-04T10:44:47.217Z,1019.6
2016-10-04T10:45:47.240Z,1019.66
2016-10-04T10:46:47.261Z,1019.62
2016-10-04T10:47:47.283Z,1019.59
2016-10-04T10:48:47.303Z,1019.59
2016-10-04T10:49:47.322Z,1019.56
2016-10-04T10:50:47.342Z,1019.61
2016-10-04T10:51:47.365Z,1019.61
2016-10-04T10:52:47.384Z,1019.61
2016-10-04T10:53:47.407Z,1019.53
2016-10-04T10:54:47.431Z,1019.62
2016-10-04T10:55:47.452Z,1019.58
2016-10-04T10:56:47.469Z,1019.66
2016-10-04T10:57:47.493Z,1019.59
2016-10-04T10:58:47.511Z,1019.55
2016-10-04T10:59:47.541Z,1019.62
2016-10-04T11:00:47.552Z,1019.6
2016-10-04T11:01:47.574Z,1019.51
2016-10-04T11:02:47.597Z,1019.61
2016-10-04T11:03:47.620Z,1019.61
2016-10-04T11:04:47.637Z,1019.57
2016-10-04T11:05:47.661Z,1019.6
2016-10-04T11:06:47.680Z,1019.58
2016-10-04T11:07:47.704Z,1019.57
2016-10-04T11:08:47.724Z,1019.57
2016-10-04T11:09:47.747Z,1019.59
2016-10-04T11:10:47.769Z,1019.6
2016-10-04T11:11:47.788Z,1019.58
2016-10-04T11:12:47.811Z,1019.56
2016-10-04T11:13:47.829Z,1019.61
2016-10-04T11:14:47.851Z,1019.65
2016-10-04T11:15:47.876Z,1019.63
2016-10-04T11:16:47.894Z,1019.62
2016-10-04T11:17:47.917Z,1019.71
2016-10-04T11:18:47.935Z,1019.69
2016-10-04T11:19:47.956Z,1019.68
2016-10-04T11:20:47.980Z,1019.71
2016-10-04T11:21:47.999Z,1019.68
2016-10-04T11:22:48.021Z,1019.67
2016-10-04T11:23:48.042Z,1019.71
2016-10-04T11:24:48.065Z,1019.68
2016-10-04T11:25:48.085Z,1019.7
2016-10-04T11:26:48.107Z,1019.69
2016-10-04T11:27:48.132Z,1019.67
2016-10-04T11:28:48.150Z,1019.66
2016-10-04T11:29:48.171Z,1019.66
2016-10-04T11:30:48.194Z,1019.78
2016-10-04T11:31:48.220Z,1019.82
2016-10-04T11:32:48.239Z,1019.76
2016-10-04T11:33:48.259Z,1019.82
2016-10-04T11:34:48.279Z,1019.89
2016-10-04T11:35:48.301Z,1019.8
2016-10-04T11:36:48.324Z,1019.86
2016-10-04T11:37:48.346Z,1019.76
2016-10-04T11:38:48.368Z,1019.86
2016-10-04T11:39:48.389Z,1019.85
2016-10-04T11:40:48.411Z,1019.8
2016-10-04T11:41:48.434Z,1019.84
2016-10-04T11:42:48.455Z,1019.8
2016-10-04T11:43:48.475Z,1019.83
2016-10-04T11:44:48.497Z,1019.9
2016-10-04T11:45:48.520Z,1019.84
2016-10-04T11:46:48.541Z,1019.83
2016-10-04T11:47:48.562Z,1019.92
2016-10-04T11:48:48.584Z,1019.79
2016-10-04T11:49:48.608Z,1019.82
2016-10-04T11:50:48.628Z,1019.77
2016-10-04T11:51:48.651Z,1019.74
2016-10-04T11:52:48.676Z,1019.75
2016-10-04T11:53:48.707Z,1019.7
2016-10-04T11:54:48.717Z,1019.75
2016-10-04T11:55:48.738Z,1019.79
2016-10-04T11:56:48.761Z,1019.78
2016-10-04T11:57:48.785Z,1019.78
2016-10-04T11:58:48.805Z,1019.76
2016-10-04T11:59:48.826Z,1019.8
2016-10-04T12:00:48.848Z,1019.78
2016-10-04T12:01:48.870Z,1019.74
2016-10-04T12:02:48.894Z,1019.73
2016-10-04T12:03:48.920Z,1019.79
2016-10-04T12:04:48.938Z,1019.77
2016-10-04T12:05:48.958Z,1019.75
2016-10-04T12:06:48.984Z,1019.77
2016-10-04T12:07:49.005Z,1019.74
2016-10-04T12:08:49.026Z,1019.74
2016-10-04T12:09:49.049Z,1019.67